Terminal Aerodrome Forecast
Issued by NWS Twin Cities, MN

Home | Current Version | Previous Version | Graphics & Text | Print | Product List | Glossary On
Versions: 1 2 3 4 5 6 7 8 9 10 11 12 13 14 15 16
465
FTUS43 KMPX 272341
TAFSTC
TAF
KSTC 272341Z 2800/2824 01005KT P6SM FEW020 BKN050
      TEMPO 2808/2812 3SM BR BKN008
     FM281500 04007KT P6SM SCT050=

USA.gov is the U.S. government's official web portal to all federal, state and local government web resources and services.